Time;durP1;ratioP1;P1;durP2;ratioP2;P2;SDS_P1;SDS_P2;PMS_P1;PMS_P2;Temp;Humidity;BMP_temperature;BMP_pressure;BME280_temperature;BME280_humidity;BME280_pressure;Samples;Min_cycle;Max_cycle;Signal;HPM_P1;HPM_P2
2022/03/03 00:02:15;;;;;;;;;;;-3.60;99.90;;;;;;5081049;28;19994;-68
2022/03/03 00:04:45;;;;;;;;;;;-3.50;99.90;;;;;;5077809;28;20332;-68
2022/03/03 00:07:12;;;;;;;;;;;-3.50;99.90;;;;;;5070374;28;19946;-68
2022/03/03 00:09:38;;;;;;;;;;;-3.50;99.90;;;;;;5086240;28;19925;-68
2022/03/03 00:12:05;;;;;;;;;;;-3.40;99.90;;;;;;5073693;28;20796;-68
2022/03/03 00:14:32;;;;;;;;;;;-3.40;99.90;;;;;;5079459;28;19924;-68
2022/03/03 00:16:59;;;;;;;;;;;-3.50;99.90;;;;;;5091953;28;19974;-68
2022/03/03 00:19:25;;;;;;;;;;;-3.40;99.90;;;;;;5085190;28;19950;-68
2022/03/03 00:21:52;;;;;;;;;;;-3.40;99.90;;;;;;5088826;28;19971;-68
2022/03/03 00:24:19;;;;;;;;;;;-3.40;99.90;;;;;;5075040;28;19924;-68
2022/03/03 00:26:45;;;;;;;;;;;-3.40;99.90;;;;;;5081898;28;20528;-68
2022/03/03 00:29:18;;;;;;;;;;;-3.40;99.90;;;;;;5072878;28;20006;-68
2022/03/03 00:31:45;;;;;;;;;;;-3.40;99.90;;;;;;5074345;28;20499;-68
2022/03/03 00:34:13;;;;;;;;;;;-3.40;99.90;;;;;;5089294;28;19932;-68
2022/03/03 00:36:47;;;;;;;;;;;-3.30;99.90;;;;;;5073061;28;20419;-68
2022/03/03 00:39:16;;;;;;;;;;;-3.30;99.90;;;;;;5073587;28;19970;-68
2022/03/03 00:41:45;;;;;;;;;;;-3.20;99.90;;;;;;5087395;28;20015;-68
2022/03/03 00:44:12;;;;;;;;;;;-3.20;99.90;;;;;;5091187;28;19959;-68
2022/03/03 00:46:41;;;;;;;;;;;-3.20;99.90;;;;;;5090442;28;20154;-68
2022/03/03 00:49:08;;;;;;;;;;;-3.20;99.90;;;;;;5090473;28;19925;-68
2022/03/03 00:51:38;;;;;;;;;;;-3.10;99.90;;;;;;5082180;28;19977;-68
2022/03/03 00:54:04;;;;;;;;;;;-3.20;99.90;;;;;;5084099;28;20419;-68
2022/03/03 00:56:34;;;;;;;;;;;-3.20;99.90;;;;;;5086457;28;19946;-68
2022/03/03 00:59:01;;;;;;;;;;;-3.30;99.90;;;;;;5089287;28;20774;-68
2022/03/03 01:01:28;;;;;;;;;;;-3.30;99.90;;;;;;5085558;28;19924;-68
2022/03/03 01:03:55;;;;;;;;;;;-3.20;99.90;;;;;;5075814;28;19929;-68
2022/03/03 01:06:21;;;;;;;;;;;-3.20;99.90;;;;;;5077430;28;19930;-68
2022/03/03 01:08:48;;;;;;;;;;;-3.30;99.90;;;;;;5083474;28;20004;-68
2022/03/03 01:11:15;;;;;;;;;;;-3.30;99.90;;;;;;5086248;28;19978;-68
2022/03/03 01:13:42;;;;;;;;;;;-3.30;99.90;;;;;;5080561;28;19924;-68
2022/03/03 01:16:11;;;;;;;;;;;-3.40;99.90;;;;;;5077457;28;19924;-68
2022/03/03 01:18:38;;;;;;;;;;;-3.50;99.90;;;;;;5073449;28;19934;-68
2022/03/03 01:21:09;;;;;;;;;;;-3.50;99.90;;;;;;5091707;28;20325;-68
2022/03/03 01:23:36;;;;;;;;;;;-3.60;99.90;;;;;;5092249;28;19924;-68
2022/03/03 01:26:07;;;;;;;;;;;-3.70;99.90;;;;;;5077177;28;19931;-68
2022/03/03 01:28:33;;;;;;;;;;;-3.80;99.90;;;;;;5087078;28;19925;-68
2022/03/03 01:31:00;;;;;;;;;;;-3.80;99.90;;;;;;5085659;28;20338;-68
2022/03/03 01:33:27;;;;;;;;;;;-3.80;99.90;;;;;;5089986;28;19924;-68
2022/03/03 01:35:54;;;;;;;;;;;-3.80;99.90;;;;;;5073753;28;20011;-68
2022/03/03 01:38:23;;;;;;;;;;;-3.80;99.90;;;;;;5077006;28;19986;-68
2022/03/03 01:40:50;;;;;;;;;;;-3.90;99.90;;;;;;5090330;28;20329;-68
2022/03/03 01:43:17;;;;;;;;;;;-4.00;99.90;;;;;;5072379;28;19924;-68
2022/03/03 01:45:45;;;;;;;;;;;-4.10;99.90;;;;;;5072518;28;20011;-68
2022/03/03 01:48:11;;;;;;;;;;;-4.20;99.90;;;;;;5085009;28;20027;-68
2022/03/03 01:50:38;;;;;;;;;;;-4.30;99.90;;;;;;5084922;28;20653;-68
2022/03/03 01:53:05;;;;;;;;;;;-4.30;99.90;;;;;;5087155;28;19975;-68
2022/03/03 01:55:38;;;;;;;;;;;-4.30;99.90;;;;;;5073241;28;19972;-69
2022/03/03 01:58:06;;;;;;;;;;;-4.30;99.90;;;;;;5072181;28;20039;-67
2022/03/03 02:00:36;;;;;;;;;;;-4.40;99.90;;;;;;5072132;28;20438;-67
2022/03/03 02:03:02;;;;;;;;;;;-4.40;99.90;;;;;;5072994;28;19978;-67
2022/03/03 02:05:30;;;;;;;;;;;-4.40;99.90;;;;;;5072163;28;20013;-68
2022/03/03 02:07:57;;;;;;;;;;;-4.40;99.90;;;;;;5074426;28;19970;-68
2022/03/03 02:10:24;;;;;;;;;;;-4.50;99.90;;;;;;5074442;28;19924;-68
2022/03/03 02:12:51;;;;;;;;;;;-4.50;99.90;;;;;;5073693;28;19925;-68
2022/03/03 02:15:18;;;;;;;;;;;-4.50;99.90;;;;;;5082133;28;19960;-68
2022/03/03 02:17:45;;;;;;;;;;;-4.60;99.90;;;;;;5080711;28;20003;-68
2022/03/03 02:20:21;;;;;;;;;;;-4.60;99.90;;;;;;5077738;28;19931;-68
2022/03/03 02:22:49;;;;;;;;;;;-4.60;99.90;;;;;;5073630;28;19924;-68
2022/03/03 02:25:16;;;;;;;;;;;-4.60;99.90;;;;;;5076462;28;19975;-68
2022/03/03 02:27:44;;;;;;;;;;;-4.60;99.90;;;;;;5088179;28;19924;-68
2022/03/03 02:30:14;;;;;;;;;;;-4.70;99.90;;;;;;5086768;28;19924;-68
2022/03/03 02:32:41;;;;;;;;;;;-4.80;99.90;;;;;;5082381;28;19977;-68
2022/03/03 02:35:08;;;;;;;;;;;-4.80;99.90;;;;;;5089030;28;19924;-68
2022/03/03 02:37:43;;;;;;;;;;;-4.90;99.90;;;;;;5084530;28;20391;-68
2022/03/03 02:40:12;;;;;;;;;;;-4.90;99.90;;;;;;5079220;28;19924;-68
2022/03/03 02:42:39;;;;;;;;;;;-5.00;99.90;;;;;;5083068;28;19971;-68
2022/03/03 02:45:06;;;;;;;;;;;-5.10;99.90;;;;;;5081849;28;19970;-68
2022/03/03 02:47:38;;;;;;;;;;;-5.20;99.90;;;;;;5070632;28;20012;-68
2022/03/03 02:50:05;;;;;;;;;;;-5.20;99.90;;;;;;5075743;28;20023;-68
2022/03/03 02:52:38;;;;;;;;;;;-5.30;99.90;;;;;;5070950;28;20009;-68
2022/03/03 02:55:09;;;;;;;;;;;-5.40;99.90;;;;;;5080676;28;20492;-68
2022/03/03 02:57:56;;;;;;;;;;;-5.50;99.90;;;;;;5075120;28;19968;-68
2022/03/03 03:00:24;;;;;;;;;;;-5.60;99.90;;;;;;5076238;28;19924;-68
2022/03/03 03:02:51;;;;;;;;;;;-5.60;99.90;;;;;;5079331;28;19931;-69
2022/03/03 03:05:18;;;;;;;;;;;-5.50;99.90;;;;;;5070997;28;19970;-68
2022/03/03 03:07:45;;;;;;;;;;;-5.30;99.90;;;;;;5069989;28;19967;-69
2022/03/03 03:10:12;;;;;;;;;;;-5.20;99.90;;;;;;5074479;28;20378;-68
2022/03/03 03:12:39;;;;;;;;;;;-5.00;99.90;;;;;;5089109;28;20398;-68
2022/03/03 03:15:08;;;;;;;;;;;-4.90;99.90;;;;;;5076444;28;20035;-69
2022/03/03 03:17:34;;;;;;;;;;;-4.80;99.90;;;;;;5070294;28;20463;-69
2022/03/03 03:20:01;;;;;;;;;;;-4.80;99.90;;;;;;5070195;28;20011;-69
2022/03/03 03:22:28;;;;;;;;;;;-4.80;99.90;;;;;;5073867;28;19931;-68
2022/03/03 03:24:54;;;;;;;;;;;-4.70;99.90;;;;;;5081362;28;19931;-69
2022/03/03 03:27:21;;;;;;;;;;;-4.60;99.90;;;;;;5084450;28;19924;-68
2022/03/03 03:29:48;;;;;;;;;;;-4.60;99.90;;;;;;5084551;28;19942;-69
2022/03/03 03:32:14;;;;;;;;;;;-4.70;99.90;;;;;;5079083;28;20094;-69
2022/03/03 03:34:41;;;;;;;;;;;-4.80;99.90;;;;;;5083869;28;19931;-69
2022/03/03 03:37:07;;;;;;;;;;;-4.80;99.90;;;;;;5074639;28;19946;-69
2022/03/03 03:39:34;;;;;;;;;;;-4.80;99.90;;;;;;5073819;28;19931;-69
2022/03/03 03:42:01;;;;;;;;;;;-4.80;99.90;;;;;;5089260;28;19930;-69
2022/03/03 03:44:30;;;;;;;;;;;-4.80;99.90;;;;;;5079118;28;19931;-69
2022/03/03 03:46:59;;;;;;;;;;;-4.80;99.90;;;;;;5082594;28;19928;-69
2022/03/03 03:49:25;;;;;;;;;;;-4.90;99.90;;;;;;5074237;28;19928;-69
2022/03/03 03:51:52;;;;;;;;;;;-4.90;99.90;;;;;;5078491;28;19924;-69
2022/03/03 03:54:18;;;;;;;;;;;-4.90;99.90;;;;;;5093841;28;19970;-70
2022/03/03 03:56:53;;;;;;;;;;;-4.90;99.90;;;;;;5083822;28;19932;-69
2022/03/03 03:59:19;;;;;;;;;;;-4.90;99.90;;;;;;5093832;28;19924;-69
2022/03/03 04:01:46;;;;;;;;;;;-4.90;99.90;;;;;;5089350;28;20378;-69
2022/03/03 04:04:16;;;;;;;;;;;-5.00;99.90;;;;;;5074895;28;19982;-69
2022/03/03 04:06:42;;;;;;;;;;;-4.90;99.90;;;;;;5073337;28;19974;-70
2022/03/03 04:09:09;;;;;;;;;;;-4.80;99.90;;;;;;5080151;28;19946;-70
2022/03/03 04:11:36;;;;;;;;;;;-4.80;99.90;;;;;;5093280;28;19928;-70
2022/03/03 04:14:03;;;;;;;;;;;-4.70;99.90;;;;;;5092385;28;19930;-70
2022/03/03 04:16:29;;;;;;;;;;;-4.50;99.90;;;;;;5073214;28;20057;-70
2022/03/03 04:18:56;;;;;;;;;;;-4.50;99.90;;;;;;5077163;28;19967;-70
2022/03/03 04:21:23;;;;;;;;;;;-4.50;99.90;;;;;;5084768;28;19929;-70
2022/03/03 04:23:50;;;;;;;;;;;-4.50;99.90;;;;;;5073429;28;19959;-70
2022/03/03 04:26:16;;;;;;;;;;;-4.50;99.90;;;;;;5088112;28;20014;-70
2022/03/03 04:28:43;;;;;;;;;;;-4.50;99.90;;;;;;5091558;28;20011;-70
2022/03/03 04:31:10;;;;;;;;;;;-4.40;99.90;;;;;;5093001;28;19974;-70
2022/03/03 04:33:39;;;;;;;;;;;-4.40;99.90;;;;;;5092076;28;19928;-70
2022/03/03 04:36:06;;;;;;;;;;;-4.40;99.90;;;;;;5076814;28;19969;-71
2022/03/03 04:38:32;;;;;;;;;;;-4.50;99.90;;;;;;5089449;28;19932;-70
2022/03/03 04:40:59;;;;;;;;;;;-4.50;99.90;;;;;;5086641;28;19925;-70
2022/03/03 04:43:26;;;;;;;;;;;-4.50;99.90;;;;;;5074134;28;20018;-70
2022/03/03 04:45:52;;;;;;;;;;;-4.50;99.90;;;;;;5088109;28;20011;-70
2022/03/03 04:48:19;;;;;;;;;;;-4.50;99.90;;;;;;5072494;28;19931;-70
2022/03/03 04:50:48;;;;;;;;;;;-4.50;99.90;;;;;;5073940;28;19978;-71
2022/03/03 04:53:15;;;;;;;;;;;-4.40;99.90;;;;;;5080936;28;20429;-70
2022/03/03 04:55:41;;;;;;;;;;;-4.40;99.90;;;;;;5073514;28;19936;-70
2022/03/03 04:58:10;;;;;;;;;;;-4.50;99.90;;;;;;5073852;28;19931;-69
2022/03/03 05:00:40;;;;;;;;;;;-4.60;99.90;;;;;;5085980;28;19925;-70
2022/03/03 05:03:06;;;;;;;;;;;-4.70;99.90;;;;;;5081016;28;19925;-70
2022/03/03 05:05:36;;;;;;;;;;;-4.90;99.90;;;;;;5072157;28;20015;-70
2022/03/03 05:08:03;;;;;;;;;;;-5.10;99.90;;;;;;5072070;28;19924;-69
2022/03/03 05:10:32;;;;;;;;;;;-5.20;99.90;;;;;;5079689;28;20339;-70
2022/03/03 05:12:59;;;;;;;;;;;-5.30;99.90;;;;;;5071684;28;19925;-70
2022/03/03 05:15:25;;;;;;;;;;;-5.30;99.90;;;;;;5072004;28;19928;-70
2022/03/03 05:17:58;;;;;;;;;;;-5.20;99.90;;;;;;5081450;28;19932;-70
2022/03/03 05:20:25;;;;;;;;;;;-5.10;99.90;;;;;;5077122;28;19978;-70
2022/03/03 05:22:51;;;;;;;;;;;-5.10;99.90;;;;;;5088895;28;20293;-70
2022/03/03 05:25:18;;;;;;;;;;;-5.00;99.90;;;;;;5091224;28;19924;-70
2022/03/03 05:27:48;;;;;;;;;;;-4.90;99.90;;;;;;5089509;28;19932;-70
2022/03/03 05:30:15;;;;;;;;;;;-4.90;99.90;;;;;;5074706;28;19928;-70
2022/03/03 05:32:42;;;;;;;;;;;-4.90;99.90;;;;;;5073209;28;19925;-70
2022/03/03 05:35:08;;;;;;;;;;;-4.80;99.90;;;;;;5072810;28;20006;-70
2022/03/03 05:37:35;;;;;;;;;;;-4.60;99.90;;;;;;5072062;28;20294;-71
2022/03/03 05:40:02;;;;;;;;;;;-4.50;99.90;;;;;;5087754;28;20011;-70
2022/03/03 05:42:30;;;;;;;;;;;-4.20;99.90;;;;;;5090043;28;19931;-71
2022/03/03 05:44:57;;;;;;;;;;;-4.10;99.90;;;;;;5090011;28;19967;-71
2022/03/03 05:47:25;;;;;;;;;;;-4.00;99.90;;;;;;5083223;28;20346;-72
2022/03/03 05:49:54;;;;;;;;;;;-4.00;99.90;;;;;;5081692;28;20366;-71
2022/03/03 05:52:20;;;;;;;;;;;-4.10;99.90;;;;;;5085898;28;19963;-71
2022/03/03 05:54:47;;;;;;;;;;;-4.20;99.90;;;;;;5072837;28;19944;-70
2022/03/03 05:57:18;;;;;;;;;;;-4.20;99.90;;;;;;5072510;28;19931;-71
2022/03/03 05:59:47;;;;;;;;;;;-4.10;99.90;;;;;;5073041;28;20011;-70
2022/03/03 06:02:13;;;;;;;;;;;-4.00;99.90;;;;;;5071640;28;20525;-71
2022/03/03 06:04:40;;;;;;;;;;;-4.00;99.90;;;;;;5072767;28;19924;-71
2022/03/03 06:07:08;;;;;;;;;;;-3.90;99.90;;;;;;5074874;28;20011;-71
2022/03/03 06:09:35;;;;;;;;;;;-3.80;99.90;;;;;;5090695;28;20023;-71
2022/03/03 06:12:06;;;;;;;;;;;-3.80;99.90;;;;;;5088744;28;19924;-71
2022/03/03 06:14:40;;;;;;;;;;;-3.70;99.90;;;;;;5077557;28;19925;-71
2022/03/03 06:17:07;;;;;;;;;;;-3.70;99.90;;;;;;5086880;28;19924;-71
2022/03/03 06:19:40;;;;;;;;;;;-3.70;99.90;;;;;;5090565;28;19931;-71
2022/03/03 06:22:08;;;;;;;;;;;-3.70;99.90;;;;;;5091077;28;19949;-71
2022/03/03 06:24:34;;;;;;;;;;;-3.70;99.90;;;;;;5088691;28;19986;-71
2022/03/03 06:27:01;;;;;;;;;;;-3.80;99.90;;;;;;5090182;28;20030;-71
2022/03/03 06:29:28;;;;;;;;;;;-3.70;99.90;;;;;;5085809;28;20015;-71
2022/03/03 06:31:55;;;;;;;;;;;-3.70;99.90;;;;;;5071835;28;19931;-72
2022/03/03 06:34:23;;;;;;;;;;;-3.60;99.90;;;;;;5082284;28;19963;-72
2022/03/03 06:36:50;;;;;;;;;;;-3.50;99.90;;;;;;5090091;28;19924;-72
2022/03/03 06:39:17;;;;;;;;;;;-3.40;99.90;;;;;;5088000;28;19974;-72
2022/03/03 06:41:44;;;;;;;;;;;-3.30;99.90;;;;;;5078517;28;19962;-72
2022/03/03 06:44:11;;;;;;;;;;;-3.20;99.90;;;;;;5075703;28;19931;-71
2022/03/03 06:46:38;;;;;;;;;;;-3.10;99.90;;;;;;5070851;28;19924;-71
2022/03/03 06:49:10;;;;;;;;;;;-3.10;99.90;;;;;;5078157;28;20317;-71
2022/03/03 06:51:44;;;;;;;;;;;-3.00;99.90;;;;;;5073696;28;20400;-70
2022/03/03 06:54:11;;;;;;;;;;;-2.90;99.90;;;;;;5085258;28;20393;-70
2022/03/03 06:56:44;;;;;;;;;;;-2.80;99.90;;;;;;5071453;28;20016;-70
2022/03/03 06:59:13;;;;;;;;;;;-2.70;99.90;;;;;;5084053;28;19957;-71
2022/03/03 07:01:43;;;;;;;;;;;-2.70;99.90;;;;;;5087770;28;20003;-70
2022/03/03 07:04:11;;;;;;;;;;;-2.60;99.90;;;;;;5071099;28;19947;-70
2022/03/03 07:06:38;;;;;;;;;;;-2.50;99.90;;;;;;5071106;28;19924;-71
2022/03/03 07:09:05;;;;;;;;;;;-2.30;99.90;;;;;;5083261;28;20398;-70
2022/03/03 07:11:32;;;;;;;;;;;-2.10;99.90;;;;;;5089769;28;19924;-70
2022/03/03 07:13:59;;;;;;;;;;;-2.00;99.90;;;;;;5085340;28;19956;-71
2022/03/03 07:16:35;;;;;;;;;;;-1.80;99.90;;;;;;5081218;28;20484;-71
2022/03/03 07:19:02;;;;;;;;;;;-1.50;99.90;;;;;;5088516;28;20012;-71
2022/03/03 07:21:31;;;;;;;;;;;-0.90;99.90;;;;;;5070914;28;19928;-71
2022/03/03 07:24:03;;;;;;;;;;;-0.50;99.90;;;;;;5085014;28;19930;-71
2022/03/03 07:26:31;;;;;;;;;;;-0.20;99.90;;;;;;5089086;28;19946;-71
2022/03/03 07:28:59;;;;;;;;;;;0.20;99.90;;;;;;5085030;28;20023;-72
2022/03/03 07:31:31;;;;;;;;;;;0.80;99.90;;;;;;5071127;28;19931;-72
2022/03/03 07:34:01;;;;;;;;;;;1.50;99.90;;;;;;5070445;28;19986;-72
2022/03/03 07:36:29;;;;;;;;;;;2.20;99.90;;;;;;5071071;28;19971;-72
2022/03/03 07:39:04;;;;;;;;;;;2.90;99.90;;;;;;5078122;28;20471;-72
2022/03/03 07:41:31;;;;;;;;;;;3.30;99.90;;;;;;5085429;28;19930;-72
2022/03/03 07:43:59;;;;;;;;;;;3.80;99.90;;;;;;5069992;28;19928;-72
2022/03/03 07:46:27;;;;;;;;;;;4.30;99.90;;;;;;5076125;28;19932;-72
2022/03/03 07:48:54;;;;;;;;;;;4.50;99.90;;;;;;5078545;28;19931;-72
2022/03/03 07:51:21;;;;;;;;;;;4.70;99.90;;;;;;5078739;28;19925;-72
2022/03/03 07:53:47;;;;;;;;;;;4.90;99.90;;;;;;5070968;28;19948;-71
2022/03/03 07:56:28;;;;;;;;;;;5.00;99.90;;;;;;5086485;28;20015;-72
2022/03/03 07:58:58;;;;;;;;;;;5.30;99.90;;;;;;5070455;28;19925;-71
2022/03/03 08:01:25;;;;;;;;;;;5.50;99.90;;;;;;5084832;28;19928;-71
2022/03/03 08:03:55;;;;;;;;;;;5.20;99.90;;;;;;5069966;28;19955;-71
2022/03/03 08:06:23;;;;;;;;;;;5.40;99.90;;;;;;5081461;28;20017;-72
2022/03/03 08:08:52;;;;;;;;;;;5.50;99.90;;;;;;5086807;28;19924;-72
2022/03/03 08:11:19;;;;;;;;;;;5.40;99.90;;;;;;5070289;28;19932;-71
2022/03/03 08:13:50;;;;;;;;;;;5.50;99.90;;;;;;5069736;28;19929;-68
2022/03/03 08:16:17;;;;;;;;;;;5.40;99.90;;;;;;5070079;28;19925;-69
2022/03/03 08:18:46;;;;;;;;;;;5.70;99.90;;;;;;5081523;28;20006;-68
2022/03/03 08:21:13;;;;;;;;;;;5.80;99.90;;;;;;5086062;28;19924;-70
2022/03/03 08:23:42;;;;;;;;;;;6.00;99.90;;;;;;5089187;28;19928;-69
2022/03/03 08:26:12;;;;;;;;;;;6.30;99.90;;;;;;5072242;28;19924;-69
2022/03/03 08:28:40;;;;;;;;;;;6.20;99.90;;;;;;5082153;28;20287;-69
2022/03/03 08:31:07;;;;;;;;;;;6.20;99.90;;;;;;5088980;28;19924;-70
2022/03/03 08:33:52;;;;;;;;;;;6.20;99.90;;;;;;5073488;28;19978;-70
2022/03/03 08:36:28;;;;;;;;;;;6.20;99.90;;;;;;5074368;28;19939;-69
2022/03/03 08:38:56;;;;;;;;;;;6.30;99.90;;;;;;5080987;28;19929;-69
2022/03/03 08:41:23;;;;;;;;;;;6.20;99.90;;;;;;5082579;28;19924;-69
2022/03/03 08:43:51;;;;;;;;;;;6.50;99.90;;;;;;5092610;28;19946;-69
2022/03/03 08:46:24;;;;;;;;;;;6.90;99.90;;;;;;5089223;28;22547;-69
2022/03/03 08:48:53;;;;;;;;;;;7.40;99.90;;;;;;5085280;28;20379;-69
2022/03/03 08:51:19;;;;;;;;;;;7.30;99.90;;;;;;5073591;28;20216;-69
2022/03/03 08:53:49;;;;;;;;;;;7.50;99.90;;;;;;5074077;28;20031;-69
2022/03/03 08:56:16;;;;;;;;;;;7.60;99.90;;;;;;5088140;28;19932;-69
2022/03/03 08:58:43;;;;;;;;;;;8.00;99.90;;;;;;5078665;28;19959;-69
2022/03/03 09:01:10;;;;;;;;;;;7.70;99.90;;;;;;5082316;28;20011;-69
2022/03/03 09:03:38;;;;;;;;;;;7.90;99.90;;;;;;5073497;28;20534;-69
2022/03/03 09:06:04;;;;;;;;;;;8.00;99.90;;;;;;5080850;28;19924;-69
2022/03/03 09:08:31;;;;;;;;;;;8.40;99.90;;;;;;5072622;28;19925;-68
2022/03/03 09:10:58;;;;;;;;;;;8.50;99.90;;;;;;5080703;28;19924;-69
2022/03/03 09:13:27;;;;;;;;;;;8.60;99.90;;;;;;5080844;28;20034;-68
2022/03/03 09:15:58;;;;;;;;;;;8.60;99.90;;;;;;5087239;28;19977;-69
2022/03/03 09:18:25;;;;;;;;;;;8.60;99.90;;;;;;5080922;28;19924;-68
2022/03/03 09:20:52;;;;;;;;;;;8.70;99.90;;;;;;5074061;28;19931;-68
2022/03/03 09:23:18;;;;;;;;;;;8.50;99.90;;;;;;5080524;28;19924;-69
2022/03/03 09:25:47;;;;;;;;;;;8.60;99.90;;;;;;5086931;28;19969;-69
2022/03/03 09:28:14;;;;;;;;;;;8.90;99.90;;;;;;5072236;28;20024;-69
2022/03/03 09:30:45;;;;;;;;;;;8.70;99.90;;;;;;5072869;28;19929;-68
2022/03/03 09:33:14;;;;;;;;;;;9.10;99.90;;;;;;5073141;28;19930;-69
2022/03/03 09:35:41;;;;;;;;;;;9.00;99.90;;;;;;5071935;28;20362;-69
2022/03/03 09:38:07;;;;;;;;;;;8.90;99.90;;;;;;5085341;28;20396;-69
2022/03/03 09:40:34;;;;;;;;;;;9.10;99.90;;;;;;5073192;28;19928;-68
2022/03/03 09:43:03;;;;;;;;;;;9.20;99.90;;;;;;5083981;28;20011;-68
2022/03/03 09:45:33;;;;;;;;;;;9.10;99.90;;;;;;5091273;28;20285;-69
2022/03/03 09:48:03;;;;;;;;;;;9.50;99.90;;;;;;5086055;28;20483;-69
2022/03/03 09:50:31;;;;;;;;;;;10.20;99.30;;;;;;5072330;28;20330;-68
2022/03/03 09:52:58;;;;;;;;;;;10.40;98.40;;;;;;5072703;28;19924;-68
2022/03/03 09:55:30;;;;;;;;;;;10.40;97.90;;;;;;5071815;28;19924;-68
2022/03/03 09:57:57;;;;;;;;;;;11.00;98.00;;;;;;5073877;28;19928;-68
2022/03/03 10:00:33;;;;;;;;;;;11.30;96.90;;;;;;5078424;28;19932;-68
2022/03/03 10:03:08;;;;;;;;;;;11.60;96.70;;;;;;5072085;28;19928;-68
2022/03/03 10:05:45;;;;;;;;;;;11.60;96.80;;;;;;5079752;28;20421;-68
2022/03/03 10:08:14;;;;;;;;;;;11.70;96.90;;;;;;5090510;28;19924;-68
2022/03/03 10:10:45;;;;;;;;;;;12.40;96.50;;;;;;5086830;28;19928;-68
2022/03/03 10:13:16;;;;;;;;;;;13.30;96.80;;;;;;5072648;28;19925;-67
2022/03/03 10:15:44;;;;;;;;;;;13.80;94.40;;;;;;5088947;28;19935;-68
2022/03/03 10:18:15;;;;;;;;;;;13.30;94.10;;;;;;5090964;28;19927;-67
2022/03/03 10:20:49;;;;;;;;;;;13.50;94.70;;;;;;5071311;28;19982;-68
2022/03/03 10:23:17;;;;;;;;;;;14.10;95.20;;;;;;5072151;28;19924;-68
2022/03/03 10:25:45;;;;;;;;;;;14.00;92.80;;;;;;5071452;28;19967;-67
2022/03/03 10:28:13;;;;;;;;;;;13.80;93.50;;;;;;5071894;28;20520;-67
2022/03/03 10:31:09;;;;;;;;;;;13.90;93.00;;;;;;5090440;28;19971;-67
2022/03/03 10:33:37;;;;;;;;;;;14.20;93.10;;;;;;5027918;28;20016;-67
2022/03/03 10:36:16;;;;;;;;;;;14.90;92.70;;;;;;5019216;28;19955;-65
2022/03/03 10:38:44;;;;;;;;;;;15.30;91.70;;;;;;5026689;28;20019;-66
2022/03/03 10:41:26;;;;;;;;;;;14.70;91.50;;;;;;5027816;28;19933;-66
2022/03/03 10:43:52;;;;;;;;;;;14.20;91.40;;;;;;5026118;28;19979;-66
2022/03/03 10:46:19;;;;;;;;;;;14.30;91.00;;;;;;5026582;28;19925;-66
2022/03/03 10:48:46;;;;;;;;;;;14.70;91.10;;;;;;5027319;28;20298;-66
2022/03/03 10:51:16;;;;;;;;;;;15.30;90.60;;;;;;5026034;28;19925;-67
2022/03/03 10:53:45;;;;;;;;;;;15.40;90.30;;;;;;5013266;28;20380;-66
2022/03/03 10:56:18;;;;;;;;;;;15.60;90.80;;;;;;5026229;28;19940;-66
2022/03/03 10:58:49;;;;;;;;;;;16.30;90.30;;;;;;5018593;28;19925;-66
2022/03/03 11:01:17;;;;;;;;;;;16.20;88.50;;;;;;5028842;28;19925;-66
2022/03/03 11:03:49;;;;;;;;;;;16.20;88.80;;;;;;5025131;28;19924;-66
2022/03/03 11:06:17;;;;;;;;;;;16.30;87.20;;;;;;5025291;28;20265;-66
2022/03/03 11:08:48;;;;;;;;;;;15.70;88.80;;;;;;5026402;28;19925;-66
2022/03/03 11:11:15;;;;;;;;;;;16.60;89.00;;;;;;5067956;28;19924;-66
2022/03/03 11:13:43;;;;;;;;;;;17.00;87.60;;;;;;5075502;28;19928;-66
2022/03/03 11:16:10;;;;;;;;;;;17.50;86.00;;;;;;5087459;28;19924;-67
2022/03/03 11:18:36;;;;;;;;;;;17.60;86.40;;;;;;5085468;28;19925;-67
2022/03/03 11:21:03;;;;;;;;;;;18.10;86.30;;;;;;5079324;28;20455;-66
2022/03/03 11:23:37;;;;;;;;;;;18.10;82.40;;;;;;5076015;28;19935;-66
2022/03/03 11:26:04;;;;;;;;;;;18.00;82.50;;;;;;5070824;28;20076;-65
2022/03/03 11:28:37;;;;;;;;;;;17.70;82.60;;;;;;5084897;28;20359;-65
2022/03/03 11:31:26;;;;;;;;;;;18.40;82.60;;;;;;5071947;28;20387;-66
2022/03/03 11:34:11;;;;;;;;;;;18.80;82.60;;;;;;5073666;28;19978;-67
2022/03/03 11:36:47;;;;;;;;;;;19.00;80.70;;;;;;5085387;28;19938;-65
2022/03/03 11:39:32;;;;;;;;;;;19.20;79.10;;;;;;5079643;28;19931;-65
2022/03/03 11:42:24;;;;;;;;;;;18.70;77.00;;;;;;5078379;28;19986;-66
2022/03/03 11:44:52;;;;;;;;;;;18.90;77.60;;;;;;5085165;28;19930;-66
2022/03/03 11:47:25;;;;;;;;;;;19.60;77.90;;;;;;5084660;28;19924;-66
2022/03/03 11:50:14;;;;;;;;;;;19.40;76.30;;;;;;5070658;28;19928;-66
2022/03/03 11:52:41;;;;;;;;;;;19.80;76.30;;;;;;5071052;28;20019;-66
2022/03/03 11:55:26;;;;;;;;;;;19.70;75.30;;;;;;5085205;28;19939;-66
2022/03/03 11:57:54;;;;;;;;;;;19.00;73.80;;;;;;5077686;28;19967;-66
2022/03/03 12:00:23;;;;;;;;;;;18.10;73.00;;;;;;5077602;28;20023;-66
2022/03/03 12:02:55;;;;;;;;;;;18.00;74.50;;;;;;5082442;28;20014;-66
2022/03/03 12:05:31;;;;;;;;;;;18.60;73.80;;;;;;5074348;28;19928;-68
2022/03/03 12:08:03;;;;;;;;;;;18.50;74.40;;;;;;5081714;28;19959;-68
2022/03/03 12:10:33;;;;;;;;;;;17.80;75.00;;;;;;5091187;28;19947;-66
2022/03/03 12:13:21;;;;;;;;;;;17.90;75.50;;;;;;5076990;28;19967;-66
2022/03/03 12:16:17;;;;;;;;;;;18.50;74.80;;;;;;5073649;28;20311;-66
2022/03/03 12:18:54;;;;;;;;;;;18.90;72.50;;;;;;5026009;28;19925;-66
2022/03/03 12:21:40;;;;;;;;;;;18.90;71.90;;;;;;5029846;28;20012;-66
2022/03/03 12:24:17;;;;;;;;;;;18.50;72.10;;;;;;5022832;28;19951;-65
2022/03/03 12:27:04;;;;;;;;;;;17.70;71.80;;;;;;5030193;28;20337;-66
2022/03/03 12:29:31;;;;;;;;;;;16.70;72.00;;;;;;5030228;28;19935;-65
2022/03/03 12:32:16;;;;;;;;;;;16.60;73.40;;;;;;5021717;28;20016;-66
2022/03/03 12:34:44;;;;;;;;;;;16.20;70.90;;;;;;5016119;28;19925;-65
2022/03/03 12:37:11;;;;;;;;;;;16.00;72.00;;;;;;5011948;28;19931;-65
2022/03/03 12:39:37;;;;;;;;;;;15.90;71.10;;;;;;5020186;28;19996;-67
2022/03/03 12:42:05;;;;;;;;;;;16.30;71.70;;;;;;5030729;28;19931;-67
2022/03/03 12:44:34;;;;;;;;;;;16.50;71.60;;;;;;5015117;28;19943;-67
2022/03/03 12:47:01;;;;;;;;;;;15.90;71.30;;;;;;5030269;28;19968;-67
2022/03/03 12:49:28;;;;;;;;;;;15.60;70.50;;;;;;5029113;28;19948;-67
2022/03/03 12:51:55;;;;;;;;;;;16.20;71.20;;;;;;5029187;28;19930;-66
2022/03/03 12:54:22;;;;;;;;;;;16.40;69.00;;;;;;5036023;28;19929;-67
2022/03/03 12:57:07;;;;;;;;;;;15.90;69.30;;;;;;5073775;28;20011;-67
2022/03/03 12:59:34;;;;;;;;;;;15.60;69.80;;;;;;5079243;28;19958;-67
2022/03/03 13:02:01;;;;;;;;;;;15.80;69.60;;;;;;5082490;28;20417;-68
2022/03/03 13:04:33;;;;;;;;;;;15.80;70.00;;;;;;5081630;28;19930;-66
2022/03/03 13:07:06;;;;;;;;;;;15.70;68.50;;;;;;5071527;28;20363;-67
2022/03/03 13:09:36;;;;;;;;;;;15.60;67.80;;;;;;5079787;28;19924;-68
2022/03/03 13:12:03;;;;;;;;;;;15.60;67.30;;;;;;5074466;28;19924;-68
2022/03/03 13:14:30;;;;;;;;;;;16.30;68.90;;;;;;5075049;28;19929;-68
2022/03/03 13:17:06;;;;;;;;;;;16.30;67.10;;;;;;5089640;28;19935;-68
2022/03/03 13:19:45;;;;;;;;;;;16.00;68.00;;;;;;5090812;28;20368;-67
2022/03/03 13:22:12;;;;;;;;;;;16.30;68.90;;;;;;5074293;28;20352;-66
2022/03/03 13:24:38;;;;;;;;;;;16.00;67.40;;;;;;5091580;28;20011;-66
2022/03/03 13:27:05;;;;;;;;;;;16.10;67.50;;;;;;5075506;28;20012;-67
2022/03/03 13:29:36;;;;;;;;;;;17.20;67.90;;;;;;5072562;28;19931;-67
2022/03/03 13:32:15;;;;;;;;;;;18.10;67.00;;;;;;5076900;28;19931;-67
2022/03/03 13:34:45;;;;;;;;;;;18.10;66.20;;;;;;5086469;28;19924;-67
2022/03/03 13:37:13;;;;;;;;;;;17.60;65.60;;;;;;5080368;28;19931;-67
2022/03/03 13:39:43;;;;;;;;;;;17.60;66.60;;;;;;5090231;28;19959;-67
2022/03/03 13:42:12;;;;;;;;;;;17.80;66.70;;;;;;5076756;28;20510;-67
2022/03/03 13:44:53;;;;;;;;;;;18.30;67.50;;;;;;5071620;28;19978;-67
2022/03/03 13:47:25;;;;;;;;;;;19.10;66.70;;;;;;5071523;28;20460;-67
2022/03/03 13:49:52;;;;;;;;;;;19.50;65.60;;;;;;5072128;28;20964;-67
2022/03/03 13:52:21;;;;;;;;;;;20.00;66.50;;;;;;5078911;28;19924;-67
2022/03/03 13:54:49;;;;;;;;;;;19.80;64.30;;;;;;5089186;28;19928;-67
2022/03/03 13:57:35;;;;;;;;;;;20.20;64.70;;;;;;5090228;28;20014;-67
2022/03/03 14:00:05;;;;;;;;;;;20.20;64.50;;;;;;5071761;28;20525;-67
2022/03/03 14:02:31;;;;;;;;;;;19.70;64.70;;;;;;5072258;28;19924;-67
2022/03/03 14:04:59;;;;;;;;;;;19.10;64.40;;;;;;5071581;28;20019;-67
2022/03/03 14:07:27;;;;;;;;;;;19.10;65.60;;;;;;5071849;28;19924;-67
2022/03/03 14:09:55;;;;;;;;;;;19.10;65.30;;;;;;5079562;28;20517;-67
2022/03/03 14:12:21;;;;;;;;;;;18.80;64.80;;;;;;5072123;28;19924;-67
2022/03/03 14:14:48;;;;;;;;;;;19.20;64.70;;;;;;5072018;28;19928;-67
2022/03/03 14:17:17;;;;;;;;;;;19.80;65.30;;;;;;5086420;28;19932;-67
2022/03/03 14:19:47;;;;;;;;;;;20.60;64.70;;;;;;5073671;28;20015;-67
2022/03/03 14:22:18;;;;;;;;;;;19.50;65.20;;;;;;5084017;28;19970;-67
2022/03/03 14:24:48;;;;;;;;;;;19.30;66.50;;;;;;5078329;28;19925;-67
2022/03/03 14:27:15;;;;;;;;;;;19.90;66.00;;;;;;5072284;28;19931;-67
2022/03/03 14:29:42;;;;;;;;;;;19.90;65.20;;;;;;5082723;28;20358;-67
2022/03/03 14:32:09;;;;;;;;;;;19.90;64.50;;;;;;5077663;28;19930;-67